Главная страница
METAR-TAF:

METAR-TAF

Аэропорты :

Астрахань, Россия

Нариманово

широта: 46-17N, долгота: 048-00-23E, высота над уровнем моря: 0 м

Текущие метеонаблюдения

Эта сводка был подготовлена 34 минут назад, в 06:30 UTC
Ветер 12 Узел от юго-юго-восточный, изменяющийся между восточно-юго-восточный и южный
Температура 27°C
Влажность 30%
Давление 1018 hPa
Видимость 10 км и более
Нет облачности ниже 1500 м, и нет кучево-дождевой облачности

METAR: URWA 270630Z 15006MPS 110V170 CAVOK 27/08 Q1018 R09/010070 NOSIG RMK QFE765/1020

Время: 10:04 (07:04 UTC)

Прогноз

Эта сводка был подготовлена 2 часа и 4 минут назад, в 05:00 UTC
Прогноз действительный с 27-го 06 UTC до 27-го 15 UTC
Ветер 12 Узел от юго-восточный с порывами до 21 Узел
Видимость 10 км и более
Нет облачности ниже 1500 м, и нет кучево-дождевой облачности
временами
С 27-го 06 UTC до 27-го 12 UTC
Ветер 16 Узел от южный с порывами до 27 Узел

TAF: URWA 270500Z 2706/2715 14006G11MPS CAVOK TEMPO 2706/2712 18008G14MPS

Метеонаблюдения и прогнозы для более 4000 аэропортов (сводки METAR и TAF).

Имеющиеся станции представлены на карте желтыми и красными точками.

Чтобы увидеть название станции, наведите на нее мышь.

Затем щелкните, чтобы увидеть метеонаблюдения и метеопрогнозы.

Управление картой: чтобы увеличить масштаб, щелкните зеленые кнопки с черным крестиком; чтобы уменьшить масштаб, щелкните зеленую кнопку с тире; для просмотра соседних карт щелкайте зеленые стрелки.


METAR-TAF: